sensor_id;sensor_type;location;lat;lon;timestamp;pressure;altitude;pressure_sealevel;temperature
65569;BMP180;52211;50.154;8.682;2023-12-28T08:53:47;100103.00;;;10.60
65569;BMP180;52211;50.154;8.682;2023-12-28T08:56:20;100111.00;;;11.60
65569;BMP180;52211;50.154;8.682;2023-12-28T08:58:50;100106.00;;;12.30
65569;BMP180;52211;50.154;8.682;2023-12-28T09:01:23;100114.00;;;12.80
65569;BMP180;52211;50.154;8.682;2023-12-28T09:03:56;100098.00;;;13.20
65569;BMP180;52211;50.154;8.682;2023-12-28T09:06:23;100094.00;;;13.50
65569;BMP180;52211;50.154;8.682;2023-12-28T09:08:52;100109.00;;;13.70
65569;BMP180;52211;50.154;8.682;2023-12-28T09:11:19;100098.00;;;13.90
65569;BMP180;52211;50.154;8.682;2023-12-28T09:13:49;100107.00;;;14.00
65569;BMP180;52211;50.154;8.682;2023-12-28T09:16:16;100107.00;;;14.10
65569;BMP180;52211;50.154;8.682;2023-12-28T09:18:48;100121.00;;;14.20
65569;BMP180;52211;50.154;8.682;2023-12-28T09:21:17;100110.00;;;14.30
65569;BMP180;52211;50.154;8.682;2023-12-28T09:23:47;100108.00;;;14.40
65569;BMP180;52211;50.154;8.682;2023-12-28T09:26:22;100118.00;;;14.40
65569;BMP180;52211;50.154;8.682;2023-12-28T09:28:49;100114.00;;;14.50
65569;BMP180;52211;50.154;8.682;2023-12-28T09:31:16;100132.00;;;14.50
65569;BMP180;52211;50.154;8.682;2023-12-28T09:33:43;100139.00;;;14.60
65569;BMP180;52211;50.154;8.682;2023-12-28T09:36:10;100125.00;;;14.60
65569;BMP180;52211;50.154;8.682;2023-12-28T09:38:40;100119.00;;;14.70
65569;BMP180;52211;50.154;8.682;2023-12-28T09:41:13;100127.00;;;14.70
65569;BMP180;52211;50.154;8.682;2023-12-28T09:44:07;100131.00;;;14.70
65569;BMP180;52211;50.154;8.682;2023-12-28T09:46:41;100126.00;;;14.80
65569;BMP180;52211;50.154;8.682;2023-12-28T09:49:11;100132.00;;;14.80
65569;BMP180;52211;50.154;8.682;2023-12-28T09:51:39;100140.00;;;14.80
65569;BMP180;52211;50.154;8.682;2023-12-28T09:54:06;100140.00;;;14.90
65569;BMP180;52211;50.154;8.682;2023-12-28T09:56:33;100154.00;;;14.90
65569;BMP180;52211;50.154;8.682;2023-12-28T09:59:04;100152.00;;;14.90
65569;BMP180;52211;50.154;8.682;2023-12-28T10:01:42;100149.00;;;14.90
65569;BMP180;52211;50.154;8.682;2023-12-28T10:04:12;100148.00;;;14.90
65569;BMP180;52211;50.154;8.682;2023-12-28T10:06:39;100154.00;;;15.00
65569;BMP180;52211;50.154;8.682;2023-12-28T10:09:09;100152.00;;;15.00
65569;BMP180;52211;50.154;8.682;2023-12-28T10:11:40;100153.00;;;15.00
65569;BMP180;52211;50.154;8.682;2023-12-28T10:14:10;100167.00;;;15.10
65569;BMP180;52211;50.154;8.682;2023-12-28T10:16:41;100173.00;;;15.10
65569;BMP180;52211;50.154;8.682;2023-12-28T10:19:11;100160.00;;;15.10
65569;BMP180;52211;50.154;8.682;2023-12-28T10:21:42;100160.00;;;15.10
65569;BMP180;52211;50.154;8.682;2023-12-28T10:24:13;100160.00;;;15.20
65569;BMP180;52211;50.154;8.682;2023-12-28T10:26:40;100152.00;;;15.20
65569;BMP180;52211;50.154;8.682;2023-12-28T10:29:07;100155.00;;;15.20
65569;BMP180;52211;50.154;8.682;2023-12-28T10:31:41;100156.00;;;15.20
65569;BMP180;52211;50.154;8.682;2023-12-28T10:34:09;100157.00;;;15.20
65569;BMP180;52211;50.154;8.682;2023-12-28T10:36:37;100142.00;;;15.30
65569;BMP180;52211;50.154;8.682;2023-12-28T10:39:16;100157.00;;;15.30
65569;BMP180;52211;50.154;8.682;2023-12-28T10:41:49;100151.00;;;15.40
65569;BMP180;52211;50.154;8.682;2023-12-28T10:44:23;100146.00;;;15.40
65569;BMP180;52211;50.154;8.682;2023-12-28T10:46:58;100137.00;;;15.40
65569;BMP180;52211;50.154;8.682;2023-12-28T10:49:33;100141.00;;;15.40
65569;BMP180;52211;50.154;8.682;2023-12-28T10:52:07;100145.00;;;15.50
65569;BMP180;52211;50.154;8.682;2023-12-28T10:54:47;100151.00;;;15.50
65569;BMP180;52211;50.154;8.682;2023-12-28T10:57:23;100137.00;;;15.60
65569;BMP180;52211;50.154;8.682;2023-12-28T11:00:30;100147.00;;;15.70
65569;BMP180;52211;50.154;8.682;2023-12-28T11:03:03;100143.00;;;15.80
65569;BMP180;52211;50.154;8.682;2023-12-28T11:05:33;100136.00;;;15.90
65569;BMP180;52211;50.154;8.682;2023-12-28T11:08:03;100140.00;;;16.00
65569;BMP180;52211;50.154;8.682;2023-12-28T11:10:34;100138.00;;;16.00
65569;BMP180;52211;50.154;8.682;2023-12-28T11:13:02;100153.00;;;16.10
65569;BMP180;52211;50.154;8.682;2023-12-28T11:15:33;100155.00;;;16.10
65569;BMP180;52211;50.154;8.682;2023-12-28T11:18:01;100165.00;;;16.10
65569;BMP180;52211;50.154;8.682;2023-12-28T11:20:37;100147.00;;;16.10
65569;BMP180;52211;50.154;8.682;2023-12-28T11:23:06;100139.00;;;16.10
65569;BMP180;52211;50.154;8.682;2023-12-28T11:25:36;100140.00;;;16.10
65569;BMP180;52211;50.154;8.682;2023-12-28T11:28:10;100146.00;;;16.10
65569;BMP180;52211;50.154;8.682;2023-12-28T11:30:38;100144.00;;;16.20
65569;BMP180;52211;50.154;8.682;2023-12-28T11:33:12;100142.00;;;16.20
65569;BMP180;52211;50.154;8.682;2023-12-28T11:35:40;100144.00;;;16.20
65569;BMP180;52211;50.154;8.682;2023-12-28T11:38:10;100135.00;;;16.30
65569;BMP180;52211;50.154;8.682;2023-12-28T11:40:50;100125.00;;;16.30
65569;BMP180;52211;50.154;8.682;2023-12-28T11:43:23;100123.00;;;16.40
65569;BMP180;52211;50.154;8.682;2023-12-28T11:45:55;100122.00;;;16.40
65569;BMP180;52211;50.154;8.682;2023-12-28T11:48:26;100118.00;;;16.50
65569;BMP180;52211;50.154;8.682;2023-12-28T11:51:03;100119.00;;;16.50
65569;BMP180;52211;50.154;8.682;2023-12-28T11:53:34;100108.00;;;16.50
65569;BMP180;52211;50.154;8.682;2023-12-28T11:56:02;100114.00;;;16.60
65569;BMP180;52211;50.154;8.682;2023-12-28T11:58:30;100110.00;;;16.60
65569;BMP180;52211;50.154;8.682;2023-12-28T12:00:57;100114.00;;;16.70
65569;BMP180;52211;50.154;8.682;2023-12-28T12:03:25;100107.00;;;16.80
65569;BMP180;52211;50.154;8.682;2023-12-28T12:05:57;100102.00;;;16.90
65569;BMP180;52211;50.154;8.682;2023-12-28T12:08:28;100095.00;;;16.90
65569;BMP180;52211;50.154;8.682;2023-12-28T12:11:07;100096.00;;;17.00
65569;BMP180;52211;50.154;8.682;2023-12-28T12:13:34;100085.00;;;17.30
65569;BMP180;52211;50.154;8.682;2023-12-28T12:16:03;100076.00;;;17.60
65569;BMP180;52211;50.154;8.682;2023-12-28T12:18:39;100073.00;;;18.10
65569;BMP180;52211;50.154;8.682;2023-12-28T12:21:06;100067.00;;;18.70
65569;BMP180;52211;50.154;8.682;2023-12-28T12:23:37;100073.00;;;19.20
65569;BMP180;52211;50.154;8.682;2023-12-28T12:26:07;100067.00;;;19.80
65569;BMP180;52211;50.154;8.682;2023-12-28T12:28:37;100081.00;;;20.30
65569;BMP180;52211;50.154;8.682;2023-12-28T12:31:10;100061.00;;;20.60
65569;BMP180;52211;50.154;8.682;2023-12-28T12:33:41;100069.00;;;21.00
65569;BMP180;52211;50.154;8.682;2023-12-28T12:36:12;100059.00;;;21.30
65569;BMP180;52211;50.154;8.682;2023-12-28T12:38:42;100049.00;;;21.40
65569;BMP180;52211;50.154;8.682;2023-12-28T12:41:11;100052.00;;;21.60
65569;BMP180;52211;50.154;8.682;2023-12-28T12:43:41;100051.00;;;21.80
65569;BMP180;52211;50.154;8.682;2023-12-28T12:46:10;100044.00;;;21.90
65569;BMP180;52211;50.154;8.682;2023-12-28T12:48:43;100039.00;;;22.00
65569;BMP180;52211;50.154;8.682;2023-12-28T12:51:24;100038.00;;;22.00
65569;BMP180;52211;50.154;8.682;2023-12-28T12:54:02;100035.00;;;22.00
65569;BMP180;52211;50.154;8.682;2023-12-28T12:56:32;100029.00;;;21.90
65569;BMP180;52211;50.154;8.682;2023-12-28T12:59:04;100029.00;;;21.70
65569;BMP180;52211;50.154;8.682;2023-12-28T13:01:35;100032.00;;;21.70
65569;BMP180;52211;50.154;8.682;2023-12-28T13:04:02;100033.00;;;21.70
65569;BMP180;52211;50.154;8.682;2023-12-28T13:06:29;100025.00;;;21.70
65569;BMP180;52211;50.154;8.682;2023-12-28T13:08:56;100017.00;;;21.60
65569;BMP180;52211;50.154;8.682;2023-12-28T13:11:23;100022.00;;;21.60
65569;BMP180;52211;50.154;8.682;2023-12-28T13:13:53;100026.00;;;21.40
65569;BMP180;52211;50.154;8.682;2023-12-28T13:16:22;100013.00;;;21.20
65569;BMP180;52211;50.154;8.682;2023-12-28T13:18:49;100020.00;;;20.90
65569;BMP180;52211;50.154;8.682;2023-12-28T13:21:16;100030.00;;;20.50
65569;BMP180;52211;50.154;8.682;2023-12-28T13:23:46;100023.00;;;20.20
65569;BMP180;52211;50.154;8.682;2023-12-28T13:26:15;100021.00;;;19.90
65569;BMP180;52211;50.154;8.682;2023-12-28T13:28:47;100024.00;;;19.60
65569;BMP180;52211;50.154;8.682;2023-12-28T13:31:14;100029.00;;;19.30
65569;BMP180;52211;50.154;8.682;2023-12-28T13:33:43;100032.00;;;19.10
65569;BMP180;52211;50.154;8.682;2023-12-28T13:36:11;100022.00;;;18.90
65569;BMP180;52211;50.154;8.682;2023-12-28T13:38:37;100015.00;;;18.70
65569;BMP180;52211;50.154;8.682;2023-12-28T13:41:07;100008.00;;;18.60
65569;BMP180;52211;50.154;8.682;2023-12-28T13:43:37;100009.00;;;18.50
65569;BMP180;52211;50.154;8.682;2023-12-28T13:46:04;100014.00;;;18.40
65569;BMP180;52211;50.154;8.682;2023-12-28T13:48:33;100023.00;;;18.20
65569;BMP180;52211;50.154;8.682;2023-12-28T13:51:02;100020.00;;;18.10
65569;BMP180;52211;50.154;8.682;2023-12-28T13:53:33;100017.00;;;17.90
65569;BMP180;52211;50.154;8.682;2023-12-28T13:56:09;100025.00;;;17.80
65569;BMP180;52211;50.154;8.682;2023-12-28T13:58:36;100025.00;;;17.60
65569;BMP180;52211;50.154;8.682;2023-12-28T14:01:03;100026.00;;;17.50
65569;BMP180;52211;50.154;8.682;2023-12-28T14:03:35;100026.00;;;17.40
65569;BMP180;52211;50.154;8.682;2023-12-28T14:06:02;100019.00;;;17.40
65569;BMP180;52211;50.154;8.682;2023-12-28T14:08:30;100025.00;;;17.30
65569;BMP180;52211;50.154;8.682;2023-12-28T14:11:01;100019.00;;;17.20
65569;BMP180;52211;50.154;8.682;2023-12-28T14:13:30;100013.00;;;17.10
65569;BMP180;52211;50.154;8.682;2023-12-28T14:15:57;100018.00;;;17.10
65569;BMP180;52211;50.154;8.682;2023-12-28T14:18:29;100010.00;;;17.00
65569;BMP180;52211;50.154;8.682;2023-12-28T14:20:59;100009.00;;;16.90
65569;BMP180;52211;50.154;8.682;2023-12-28T14:23:26;100010.00;;;16.80
65569;BMP180;52211;50.154;8.682;2023-12-28T14:25:54;100000.00;;;16.80
65569;BMP180;52211;50.154;8.682;2023-12-28T14:28:26;100003.00;;;16.70
65569;BMP180;52211;50.154;8.682;2023-12-28T14:30:53;100005.00;;;16.60
65569;BMP180;52211;50.154;8.682;2023-12-28T14:33:21;100011.00;;;16.60
65569;BMP180;52211;50.154;8.682;2023-12-28T14:35:49;100006.00;;;16.60
65569;BMP180;52211;50.154;8.682;2023-12-28T14:38:16;99999.00;;;16.50
65569;BMP180;52211;50.154;8.682;2023-12-28T14:40:45;100003.00;;;16.40
65569;BMP180;52211;50.154;8.682;2023-12-28T14:43:15;100000.00;;;16.30
65569;BMP180;52211;50.154;8.682;2023-12-28T14:45:42;99999.00;;;16.30
65569;BMP180;52211;50.154;8.682;2023-12-28T14:48:09;99997.00;;;16.20
65569;BMP180;52211;50.154;8.682;2023-12-28T14:50:38;100003.00;;;16.20
65569;BMP180;52211;50.154;8.682;2023-12-28T14:53:09;99999.00;;;16.10
65569;BMP180;52211;50.154;8.682;2023-12-28T14:55:40;100011.00;;;16.10
65569;BMP180;52211;50.154;8.682;2023-12-28T14:58:11;100007.00;;;16.10
65569;BMP180;52211;50.154;8.682;2023-12-28T15:00:38;100002.00;;;16.00
65569;BMP180;52211;50.154;8.682;2023-12-28T15:03:06;100006.00;;;16.00
65569;BMP180;52211;50.154;8.682;2023-12-28T15:05:33;100003.00;;;16.00
65569;BMP180;52211;50.154;8.682;2023-12-28T15:08:00;100001.00;;;16.00
65569;BMP180;52211;50.154;8.682;2023-12-28T15:10:27;99991.00;;;16.00
65569;BMP180;52211;50.154;8.682;2023-12-28T15:12:54;100004.00;;;15.90
65569;BMP180;52211;50.154;8.682;2023-12-28T15:15:22;100002.00;;;15.90
65569;BMP180;52211;50.154;8.682;2023-12-28T15:17:52;100007.00;;;15.90
65569;BMP180;52211;50.154;8.682;2023-12-28T15:20:23;100019.00;;;15.90
65569;BMP180;52211;50.154;8.682;2023-12-28T15:22:55;100015.00;;;15.90
65569;BMP180;52211;50.154;8.682;2023-12-28T15:25:25;100008.00;;;15.90
65569;BMP180;52211;50.154;8.682;2023-12-28T15:27:57;100016.00;;;15.80
65569;BMP180;52211;50.154;8.682;2023-12-28T15:30:29;100016.00;;;15.90
65569;BMP180;52211;50.154;8.682;2023-12-28T15:32:56;100014.00;;;15.80
65569;BMP180;52211;50.154;8.682;2023-12-28T15:35:23;100017.00;;;15.80
65569;BMP180;52211;50.154;8.682;2023-12-28T15:37:52;100009.00;;;15.80
65569;BMP180;52211;50.154;8.682;2023-12-28T15:40:23;100013.00;;;15.80
65569;BMP180;52211;50.154;8.682;2023-12-28T15:42:50;100018.00;;;15.80
65569;BMP180;52211;50.154;8.682;2023-12-28T15:45:23;100014.00;;;15.80
65569;BMP180;52211;50.154;8.682;2023-12-28T15:47:50;100024.00;;;15.80
65569;BMP180;52211;50.154;8.682;2023-12-28T15:50:20;100007.00;;;15.70
65569;BMP180;52211;50.154;8.682;2023-12-28T15:52:51;100010.00;;;15.70
65569;BMP180;52211;50.154;8.682;2023-12-28T15:55:21;100003.00;;;15.70
65569;BMP180;52211;50.154;8.682;2023-12-28T15:57:48;100006.00;;;15.80
65569;BMP180;52211;50.154;8.682;2023-12-28T16:00:18;100003.00;;;15.70
65569;BMP180;52211;50.154;8.682;2023-12-28T16:02:45;100003.00;;;15.70
65569;BMP180;52211;50.154;8.682;2023-12-28T16:05:12;100000.00;;;15.70
65569;BMP180;52211;50.154;8.682;2023-12-28T16:07:42;100009.00;;;15.70
65569;BMP180;52211;50.154;8.682;2023-12-28T16:10:11;100008.00;;;15.70
65569;BMP180;52211;50.154;8.682;2023-12-28T16:12:38;100005.00;;;15.60
65569;BMP180;52211;50.154;8.682;2023-12-28T16:15:08;100005.00;;;15.60
65569;BMP180;52211;50.154;8.682;2023-12-28T16:17:36;100005.00;;;15.60
65569;BMP180;52211;50.154;8.682;2023-12-28T16:20:07;99999.00;;;15.60
65569;BMP180;52211;50.154;8.682;2023-12-28T16:22:39;99994.00;;;15.60
65569;BMP180;52211;50.154;8.682;2023-12-28T16:25:06;99994.00;;;15.60
65569;BMP180;52211;50.154;8.682;2023-12-28T16:27:35;99988.00;;;15.50
65569;BMP180;52211;50.154;8.682;2023-12-28T16:30:02;99984.00;;;15.50
65569;BMP180;52211;50.154;8.682;2023-12-28T16:32:31;99989.00;;;15.50
65569;BMP180;52211;50.154;8.682;2023-12-28T16:35:01;99989.00;;;15.50
65569;BMP180;52211;50.154;8.682;2023-12-28T16:37:28;99993.00;;;15.50
65569;BMP180;52211;50.154;8.682;2023-12-28T16:39:59;99996.00;;;15.40
65569;BMP180;52211;50.154;8.682;2023-12-28T16:42:26;99988.00;;;15.40
65569;BMP180;52211;50.154;8.682;2023-12-28T16:44:53;99989.00;;;15.40
65569;BMP180;52211;50.154;8.682;2023-12-28T16:47:20;99992.00;;;15.30
65569;BMP180;52211;50.154;8.682;2023-12-28T16:49:47;99978.00;;;15.30
65569;BMP180;52211;50.154;8.682;2023-12-28T16:52:17;99981.00;;;15.20
65569;BMP180;52211;50.154;8.682;2023-12-28T16:54:48;99977.00;;;15.20
65569;BMP180;52211;50.154;8.682;2023-12-28T16:57:20;99977.00;;;15.20
65569;BMP180;52211;50.154;8.682;2023-12-28T16:59:49;99980.00;;;15.20
65569;BMP180;52211;50.154;8.682;2023-12-28T17:02:32;99985.00;;;15.10
65569;BMP180;52211;50.154;8.682;2023-12-28T17:05:02;99981.00;;;15.10
65569;BMP180;52211;50.154;8.682;2023-12-28T17:07:32;99985.00;;;15.00
65569;BMP180;52211;50.154;8.682;2023-12-28T17:10:04;99978.00;;;15.00
65569;BMP180;52211;50.154;8.682;2023-12-28T17:12:38;99972.00;;;15.00
65569;BMP180;52211;50.154;8.682;2023-12-28T17:15:06;99978.00;;;15.00
65569;BMP180;52211;50.154;8.682;2023-12-28T17:17:37;99981.00;;;15.00
65569;BMP180;52211;50.154;8.682;2023-12-28T17:20:08;99985.00;;;15.00
65569;BMP180;52211;50.154;8.682;2023-12-28T17:22:49;99973.00;;;14.90
65569;BMP180;52211;50.154;8.682;2023-12-28T17:28:15;99979.00;;;14.80
65569;BMP180;52211;50.154;8.682;2023-12-28T17:30:46;99982.00;;;14.80
65569;BMP180;52211;50.154;8.682;2023-12-28T17:33:19;99983.00;;;14.80
65569;BMP180;52211;50.154;8.682;2023-12-28T17:35:49;99983.00;;;14.80
65569;BMP180;52211;50.154;8.682;2023-12-28T17:38:23;99981.00;;;14.80
65569;BMP180;52211;50.154;8.682;2023-12-28T17:40:54;99981.00;;;14.80
65569;BMP180;52211;50.154;8.682;2023-12-28T17:43:48;99979.00;;;14.80
65569;BMP180;52211;50.154;8.682;2023-12-28T17:49:29;99976.00;;;14.70
65569;BMP180;52211;50.154;8.682;2023-12-28T17:52:01;99979.00;;;14.60
65569;BMP180;52211;50.154;8.682;2023-12-28T17:54:30;99970.00;;;14.60
65569;BMP180;52211;50.154;8.682;2023-12-28T17:56:59;99971.00;;;14.60
65569;BMP180;52211;50.154;8.682;2023-12-28T17:59:30;99969.00;;;14.60
65569;BMP180;52211;50.154;8.682;2023-12-28T18:02:02;99981.00;;;14.60
65569;BMP180;52211;50.154;8.682;2023-12-28T18:04:31;99975.00;;;14.50
65569;BMP180;52211;50.154;8.682;2023-12-28T18:06:58;99968.00;;;14.50
65569;BMP180;52211;50.154;8.682;2023-12-28T18:09:27;99976.00;;;14.50
65569;BMP180;52211;50.154;8.682;2023-12-28T18:11:59;99980.00;;;14.40
65569;BMP180;52211;50.154;8.682;2023-12-28T18:14:26;99974.00;;;14.40
65569;BMP180;52211;50.154;8.682;2023-12-28T18:16:53;99982.00;;;14.40
65569;BMP180;52211;50.154;8.682;2023-12-28T18:19:22;99978.00;;;14.40
65569;BMP180;52211;50.154;8.682;2023-12-28T18:21:49;99982.00;;;14.40
65569;BMP180;52211;50.154;8.682;2023-12-28T18:24:19;99966.00;;;14.40
65569;BMP180;52211;50.154;8.682;2023-12-28T18:26:46;99969.00;;;14.40
65569;BMP180;52211;50.154;8.682;2023-12-28T18:29:18;99970.00;;;14.40
65569;BMP180;52211;50.154;8.682;2023-12-28T18:31:45;99965.00;;;14.40
65569;BMP180;52211;50.154;8.682;2023-12-28T18:34:16;99972.00;;;14.40
65569;BMP180;52211;50.154;8.682;2023-12-28T18:36:48;99975.00;;;14.40
65569;BMP180;52211;50.154;8.682;2023-12-28T18:39:21;99977.00;;;14.40
65569;BMP180;52211;50.154;8.682;2023-12-28T18:41:59;99969.00;;;14.40
65569;BMP180;52211;50.154;8.682;2023-12-28T18:44:30;99973.00;;;14.40
65569;BMP180;52211;50.154;8.682;2023-12-28T18:47:03;99979.00;;;14.40
65569;BMP180;52211;50.154;8.682;2023-12-28T18:49:34;99978.00;;;14.40
65569;BMP180;52211;50.154;8.682;2023-12-28T18:52:01;99977.00;;;14.40
65569;BMP180;52211;50.154;8.682;2023-12-28T18:54:38;99972.00;;;14.30
65569;BMP180;52211;50.154;8.682;2023-12-28T18:57:05;99979.00;;;14.40
65569;BMP180;52211;50.154;8.682;2023-12-28T18:59:34;99975.00;;;14.30
65569;BMP180;52211;50.154;8.682;2023-12-28T19:02:03;99979.00;;;14.30
65569;BMP180;52211;50.154;8.682;2023-12-28T19:04:35;99979.00;;;14.40
65569;BMP180;52211;50.154;8.682;2023-12-28T19:07:07;99980.00;;;14.40
65569;BMP180;52211;50.154;8.682;2023-12-28T19:09:39;99975.00;;;14.40
65569;BMP180;52211;50.154;8.682;2023-12-28T19:12:11;99965.00;;;14.30
65569;BMP180;52211;50.154;8.682;2023-12-28T19:14:41;99968.00;;;14.30
65569;BMP180;52211;50.154;8.682;2023-12-28T19:17:10;99968.00;;;14.30
65569;BMP180;52211;50.154;8.682;2023-12-28T19:19:37;99970.00;;;14.30
65569;BMP180;52211;50.154;8.682;2023-12-28T19:22:07;99968.00;;;14.30
65569;BMP180;52211;50.154;8.682;2023-12-28T19:24:36;99975.00;;;14.30
65569;BMP180;52211;50.154;8.682;2023-12-28T19:27:06;99979.00;;;14.30
65569;BMP180;52211;50.154;8.682;2023-12-28T19:29:35;99985.00;;;14.40
65569;BMP180;52211;50.154;8.682;2023-12-28T19:32:02;99967.00;;;14.40
65569;BMP180;52211;50.154;8.682;2023-12-28T19:34:31;99969.00;;;14.40
65569;BMP180;52211;50.154;8.682;2023-12-28T19:37:03;99968.00;;;14.40
65569;BMP180;52211;50.154;8.682;2023-12-28T19:39:33;99977.00;;;14.40
65569;BMP180;52211;50.154;8.682;2023-12-28T19:42:00;99968.00;;;14.40
65569;BMP180;52211;50.154;8.682;2023-12-28T19:44:29;99975.00;;;14.40
65569;BMP180;52211;50.154;8.682;2023-12-28T19:46:56;99973.00;;;14.40
65569;BMP180;52211;50.154;8.682;2023-12-28T19:49:23;99978.00;;;14.40
65569;BMP180;52211;50.154;8.682;2023-12-28T19:51:58;99979.00;;;14.40
65569;BMP180;52211;50.154;8.682;2023-12-28T19:54:27;99980.00;;;14.40
65569;BMP180;52211;50.154;8.682;2023-12-28T19:56:59;99988.00;;;14.40
65569;BMP180;52211;50.154;8.682;2023-12-28T19:59:26;99994.00;;;14.40
65569;BMP180;52211;50.154;8.682;2023-12-28T20:01:55;99990.00;;;14.40
65569;BMP180;52211;50.154;8.682;2023-12-28T20:04:26;99988.00;;;14.40
65569;BMP180;52211;50.154;8.682;2023-12-28T20:06:56;99983.00;;;14.50
65569;BMP180;52211;50.154;8.682;2023-12-28T20:09:23;99986.00;;;14.50
65569;BMP180;52211;50.154;8.682;2023-12-28T20:11:52;99981.00;;;14.50
65569;BMP180;52211;50.154;8.682;2023-12-28T20:14:24;99977.00;;;14.50
65569;BMP180;52211;50.154;8.682;2023-12-28T20:16:51;99977.00;;;14.50
65569;BMP180;52211;50.154;8.682;2023-12-28T20:19:18;99980.00;;;14.50
65569;BMP180;52211;50.154;8.682;2023-12-28T20:21:51;99976.00;;;14.60
65569;BMP180;52211;50.154;8.682;2023-12-28T20:24:25;99970.00;;;14.60
65569;BMP180;52211;50.154;8.682;2023-12-28T20:27:00;99976.00;;;14.60
65569;BMP180;52211;50.154;8.682;2023-12-28T20:29:29;99969.00;;;14.60
65569;BMP180;52211;50.154;8.682;2023-12-28T20:31:58;99969.00;;;14.60
65569;BMP180;52211;50.154;8.682;2023-12-28T20:34:26;99966.00;;;14.60
65569;BMP180;52211;50.154;8.682;2023-12-28T20:36:53;99964.00;;;14.60
65569;BMP180;52211;50.154;8.682;2023-12-28T20:39:22;99964.00;;;14.60
65569;BMP180;52211;50.154;8.682;2023-12-28T20:41:56;99968.00;;;14.60
65569;BMP180;52211;50.154;8.682;2023-12-28T20:44:25;99968.00;;;14.60
65569;BMP180;52211;50.154;8.682;2023-12-28T20:46:52;99968.00;;;14.60
65569;BMP180;52211;50.154;8.682;2023-12-28T20:49:22;99970.00;;;14.60
65569;BMP180;52211;50.154;8.682;2023-12-28T20:52:07;99971.00;;;14.60
65569;BMP180;52211;50.154;8.682;2023-12-28T20:54:34;99974.00;;;14.70
65569;BMP180;52211;50.154;8.682;2023-12-28T20:57:03;99962.00;;;14.70
65569;BMP180;52211;50.154;8.682;2023-12-28T20:59:33;99954.00;;;14.70
65569;BMP180;52211;50.154;8.682;2023-12-28T21:02:03;99961.00;;;14.70
65569;BMP180;52211;50.154;8.682;2023-12-28T21:04:34;99959.00;;;14.70
65569;BMP180;52211;50.154;8.682;2023-12-28T21:07:06;99962.00;;;14.70
65569;BMP180;52211;50.154;8.682;2023-12-28T21:09:36;99954.00;;;14.80
65569;BMP180;52211;50.154;8.682;2023-12-28T21:12:07;99956.00;;;14.80
65569;BMP180;52211;50.154;8.682;2023-12-28T21:14:38;99963.00;;;14.80
65569;BMP180;52211;50.154;8.682;2023-12-28T21:17:09;99951.00;;;14.80
65569;BMP180;52211;50.154;8.682;2023-12-28T21:19:38;99954.00;;;14.80
65569;BMP180;52211;50.154;8.682;2023-12-28T21:22:16;99964.00;;;14.80
65569;BMP180;52211;50.154;8.682;2023-12-28T21:24:46;99966.00;;;14.80
65569;BMP180;52211;50.154;8.682;2023-12-28T21:27:15;99962.00;;;14.80
65569;BMP180;52211;50.154;8.682;2023-12-28T21:29:46;99957.00;;;14.80
65569;BMP180;52211;50.154;8.682;2023-12-28T21:32:15;99947.00;;;14.80
65569;BMP180;52211;50.154;8.682;2023-12-28T21:34:48;99943.00;;;14.80
65569;BMP180;52211;50.154;8.682;2023-12-28T21:37:15;99950.00;;;14.70
65569;BMP180;52211;50.154;8.682;2023-12-28T21:39:44;99961.00;;;14.80
65569;BMP180;52211;50.154;8.682;2023-12-28T21:42:14;99949.00;;;14.70
65569;BMP180;52211;50.154;8.682;2023-12-28T21:44:41;99952.00;;;14.70
65569;BMP180;52211;50.154;8.682;2023-12-28T21:47:07;99949.00;;;14.80
65569;BMP180;52211;50.154;8.682;2023-12-28T21:49:43;99948.00;;;14.80
65569;BMP180;52211;50.154;8.682;2023-12-28T21:52:13;99943.00;;;14.80
65569;BMP180;52211;50.154;8.682;2023-12-28T21:54:46;99940.00;;;14.80
65569;BMP180;52211;50.154;8.682;2023-12-28T21:57:18;99954.00;;;14.80
65569;BMP180;52211;50.154;8.682;2023-12-28T21:59:50;99944.00;;;14.80
65569;BMP180;52211;50.154;8.682;2023-12-28T22:02:18;99948.00;;;14.80
65569;BMP180;52211;50.154;8.682;2023-12-28T22:04:52;99945.00;;;14.80
65569;BMP180;52211;50.154;8.682;2023-12-28T22:07:22;99950.00;;;14.80
65569;BMP180;52211;50.154;8.682;2023-12-28T22:09:48;99949.00;;;14.80
65569;BMP180;52211;50.154;8.682;2023-12-28T22:12:16;99942.00;;;14.80
65569;BMP180;52211;50.154;8.682;2023-12-28T22:14:46;99943.00;;;14.80
65569;BMP180;52211;50.154;8.682;2023-12-28T22:17:13;99955.00;;;14.80
65569;BMP180;52211;50.154;8.682;2023-12-28T22:19:44;99948.00;;;14.80
65569;BMP180;52211;50.154;8.682;2023-12-28T22:22:14;99957.00;;;14.80
65569;BMP180;52211;50.154;8.682;2023-12-28T22:24:43;99959.00;;;14.80
65569;BMP180;52211;50.154;8.682;2023-12-28T22:27:12;99952.00;;;14.80
65569;BMP180;52211;50.154;8.682;2023-12-28T22:29:42;99944.00;;;14.80
65569;BMP180;52211;50.154;8.682;2023-12-28T22:32:17;99939.00;;;14.80
65569;BMP180;52211;50.154;8.682;2023-12-28T22:34:52;99935.00;;;14.80
65569;BMP180;52211;50.154;8.682;2023-12-28T22:37:19;99944.00;;;14.80
65569;BMP180;52211;50.154;8.682;2023-12-28T22:39:48;99939.00;;;14.90
65569;BMP180;52211;50.154;8.682;2023-12-28T22:42:17;99947.00;;;14.90
65569;BMP180;52211;50.154;8.682;2023-12-28T22:44:45;99946.00;;;14.90
65569;BMP180;52211;50.154;8.682;2023-12-28T22:47:12;99942.00;;;14.90
65569;BMP180;52211;50.154;8.682;2023-12-28T22:49:38;99940.00;;;14.90
65569;BMP180;52211;50.154;8.682;2023-12-28T22:52:08;99941.00;;;14.90
65569;BMP180;52211;50.154;8.682;2023-12-28T22:54:42;99943.00;;;14.90
65569;BMP180;52211;50.154;8.682;2023-12-28T22:57:16;99943.00;;;14.90
65569;BMP180;52211;50.154;8.682;2023-12-28T22:59:43;99945.00;;;15.00
65569;BMP180;52211;50.154;8.682;2023-12-28T23:02:12;99940.00;;;15.00
65569;BMP180;52211;50.154;8.682;2023-12-28T23:04:42;99939.00;;;15.00
65569;BMP180;52211;50.154;8.682;2023-12-28T23:07:23;99951.00;;;15.00
65569;BMP180;52211;50.154;8.682;2023-12-28T23:09:55;99953.00;;;15.00
65569;BMP180;52211;50.154;8.682;2023-12-28T23:12:21;99950.00;;;15.00
65569;BMP180;52211;50.154;8.682;2023-12-28T23:14:53;99941.00;;;15.00
65569;BMP180;52211;50.154;8.682;2023-12-28T23:17:26;99939.00;;;15.00